Terminal Aerodrome Forecast
Issued by NWS

Home | Current Version | Previous Version | Text Only | Print | Product List | Glossary On
Versions: 1 2 3 4 5 6 7 8 9 10 11 12 13 14 15
000
FTUS46 KPDT 021726
TAFPSC
TAF
KPSC 021726Z 0218/0318 26014G22KT P6SM SCT080 OVC100
     FM030300 28010KT P6SM SCT100 SCT200
     FM030900 23011KT P6SM SCT200=

USA.gov is the U.S. government's official web portal to all federal, state and local government web resources and services.